sensor_id;sensor_type;location;lat;lon;timestamp;P1;durP1;ratioP1;P2;durP2;ratioP2
10142;SDS011;5112;54.088;13.446;2023-10-13T00:06:51;3.60;;;2.50;;
10142;SDS011;5112;54.088;13.446;2023-10-13T00:16:54;5.33;;;2.73;;
10142;SDS011;5112;54.088;13.446;2023-10-13T00:27:03;5.77;;;3.10;;
10142;SDS011;5112;54.088;13.446;2023-10-13T00:37:07;5.33;;;2.70;;
10142;SDS011;5112;54.088;13.446;2023-10-13T00:47:18;5.47;;;2.90;;
10142;SDS011;5112;54.088;13.446;2023-10-13T00:57:39;5.63;;;2.90;;
10142;SDS011;5112;54.088;13.446;2023-10-13T01:07:41;6.37;;;3.10;;
10142;SDS011;5112;54.088;13.446;2023-10-13T01:17:45;5.73;;;2.97;;
10142;SDS011;5112;54.088;13.446;2023-10-13T01:27:48;4.83;;;2.63;;
10142;SDS011;5112;54.088;13.446;2023-10-13T01:37:51;4.57;;;2.50;;
10142;SDS011;5112;54.088;13.446;2023-10-13T01:47:54;5.03;;;2.43;;
10142;SDS011;5112;54.088;13.446;2023-10-13T01:57:56;5.97;;;2.70;;
10142;SDS011;5112;54.088;13.446;2023-10-13T02:07:59;6.50;;;3.17;;
10142;SDS011;5112;54.088;13.446;2023-10-13T02:18:07;4.17;;;2.40;;
10142;SDS011;5112;54.088;13.446;2023-10-13T02:28:11;5.50;;;2.80;;
10142;SDS011;5112;54.088;13.446;2023-10-13T02:38:14;5.32;;;3.20;;
10142;SDS011;5112;54.088;13.446;2023-10-13T02:48:27;8.57;;;2.73;;
10142;SDS011;5112;54.088;13.446;2023-10-13T02:58:40;4.93;;;2.70;;
10142;SDS011;5112;54.088;13.446;2023-10-13T03:08:47;4.03;;;2.60;;
10142;SDS011;5112;54.088;13.446;2023-10-13T03:18:49;6.20;;;2.57;;
10142;SDS011;5112;54.088;13.446;2023-10-13T03:28:57;11.47;;;2.73;;
10142;SDS011;5112;54.088;13.446;2023-10-13T03:38:58;4.63;;;2.67;;
10142;SDS011;5112;54.088;13.446;2023-10-13T03:49:01;7.57;;;2.43;;
10142;SDS011;5112;54.088;13.446;2023-10-13T03:59:06;4.63;;;2.50;;
10142;SDS011;5112;54.088;13.446;2023-10-13T04:09:17;7.20;;;2.73;;
10142;SDS011;5112;54.088;13.446;2023-10-13T04:19:37;5.20;;;2.73;;
10142;SDS011;5112;54.088;13.446;2023-10-13T04:30:01;5.87;;;2.33;;
10142;SDS011;5112;54.088;13.446;2023-10-13T04:40:11;7.60;;;2.40;;
10142;SDS011;5112;54.088;13.446;2023-10-13T04:50:16;6.83;;;2.70;;
10142;SDS011;5112;54.088;13.446;2023-10-13T05:00:22;8.13;;;3.50;;
10142;SDS011;5112;54.088;13.446;2023-10-13T05:10:43;5.43;;;2.97;;
10142;SDS011;5112;54.088;13.446;2023-10-13T05:21:02;15.30;;;3.60;;
10142;SDS011;5112;54.088;13.446;2023-10-13T05:31:23;8.47;;;3.27;;
10142;SDS011;5112;54.088;13.446;2023-10-13T05:41:42;8.50;;;3.60;;
10142;SDS011;5112;54.088;13.446;2023-10-13T05:52:03;9.47;;;3.43;;
10142;SDS011;5112;54.088;13.446;2023-10-13T06:02:19;11.20;;;4.13;;
10142;SDS011;5112;54.088;13.446;2023-10-13T06:12:36;8.07;;;4.60;;
10142;SDS011;5112;54.088;13.446;2023-10-13T06:22:56;8.47;;;5.30;;
10142;SDS011;5112;54.088;13.446;2023-10-13T06:33:16;10.47;;;5.67;;
10142;SDS011;5112;54.088;13.446;2023-10-13T06:43:18;14.07;;;6.30;;
10142;SDS011;5112;54.088;13.446;2023-10-13T06:53:23;10.50;;;7.03;;
10142;SDS011;5112;54.088;13.446;2023-10-13T07:03:25;11.87;;;6.63;;
10142;SDS011;5112;54.088;13.446;2023-10-13T07:13:28;18.70;;;8.17;;
10142;SDS011;5112;54.088;13.446;2023-10-13T07:23:29;12.87;;;7.70;;
10142;SDS011;5112;54.088;13.446;2023-10-13T07:33:32;15.20;;;8.90;;
10142;SDS011;5112;54.088;13.446;2023-10-13T07:43:35;11.30;;;8.70;;
10142;SDS011;5112;54.088;13.446;2023-10-13T07:53:39;9.67;;;7.93;;
10142;SDS011;5112;54.088;13.446;2023-10-13T08:03:43;14.77;;;9.73;;
10142;SDS011;5112;54.088;13.446;2023-10-13T08:13:46;16.43;;;10.37;;
10142;SDS011;5112;54.088;13.446;2023-10-13T08:23:53;12.27;;;10.77;;
10142;SDS011;5112;54.088;13.446;2023-10-13T08:34:08;15.57;;;10.93;;
10142;SDS011;5112;54.088;13.446;2023-10-13T08:44:16;14.73;;;10.90;;
10142;SDS011;5112;54.088;13.446;2023-10-13T08:54:35;12.13;;;10.87;;
10142;SDS011;5112;54.088;13.446;2023-10-13T09:04:45;13.20;;;10.80;;
10142;SDS011;5112;54.088;13.446;2023-10-13T09:15:01;14.03;;;12.53;;
10142;SDS011;5112;54.088;13.446;2023-10-13T09:25:05;14.10;;;11.77;;
10142;SDS011;5112;54.088;13.446;2023-10-13T09:35:18;13.13;;;11.93;;
10142;SDS011;5112;54.088;13.446;2023-10-13T09:45:24;13.10;;;11.70;;
10142;SDS011;5112;54.088;13.446;2023-10-13T09:55:32;14.00;;;12.60;;
10142;SDS011;5112;54.088;13.446;2023-10-13T10:05:39;15.13;;;13.53;;
10142;SDS011;5112;54.088;13.446;2023-10-13T10:15:43;15.90;;;12.53;;
10142;SDS011;5112;54.088;13.446;2023-10-13T10:25:47;15.10;;;12.87;;
10142;SDS011;5112;54.088;13.446;2023-10-13T10:35:59;13.90;;;12.60;;
10142;SDS011;5112;54.088;13.446;2023-10-13T10:46:02;12.53;;;11.33;;
10142;SDS011;5112;54.088;13.446;2023-10-13T10:56:07;14.17;;;12.43;;
10142;SDS011;5112;54.088;13.446;2023-10-13T11:06:19;13.87;;;11.27;;
10142;SDS011;5112;54.088;13.446;2023-10-13T11:16:25;12.93;;;11.63;;
10142;SDS011;5112;54.088;13.446;2023-10-13T11:26:34;13.17;;;10.53;;
10142;SDS011;5112;54.088;13.446;2023-10-13T11:36:38;12.47;;;10.37;;
10142;SDS011;5112;54.088;13.446;2023-10-13T11:46:40;9.93;;;9.03;;
10142;SDS011;5112;54.088;13.446;2023-10-13T11:56:59;11.73;;;8.83;;
10142;SDS011;5112;54.088;13.446;2023-10-13T12:07:00;8.67;;;7.70;;
10142;SDS011;5112;54.088;13.446;2023-10-13T12:17:16;8.10;;;7.37;;
10142;SDS011;5112;54.088;13.446;2023-10-13T12:27:24;8.23;;;7.43;;
10142;SDS011;5112;54.088;13.446;2023-10-13T12:37:36;8.57;;;7.77;;
10142;SDS011;5112;54.088;13.446;2023-10-13T12:47:50;8.60;;;7.70;;
10142;SDS011;5112;54.088;13.446;2023-10-13T12:58:11;9.73;;;8.70;;
10142;SDS011;5112;54.088;13.446;2023-10-13T13:08:13;9.93;;;8.70;;
10142;SDS011;5112;54.088;13.446;2023-10-13T13:18:23;9.30;;;8.33;;
10142;SDS011;5112;54.088;13.446;2023-10-13T13:28:24;7.60;;;6.90;;
10142;SDS011;5112;54.088;13.446;2023-10-13T13:38:30;9.57;;;7.03;;
10142;SDS011;5112;54.088;13.446;2023-10-13T13:48:33;7.53;;;6.50;;
10142;SDS011;5112;54.088;13.446;2023-10-13T13:58:36;7.40;;;6.60;;
10142;SDS011;5112;54.088;13.446;2023-10-13T14:08:38;9.03;;;5.80;;
10142;SDS011;5112;54.088;13.446;2023-10-13T14:18:43;6.07;;;5.47;;
10142;SDS011;5112;54.088;13.446;2023-10-13T14:28:45;6.23;;;5.63;;
10142;SDS011;5112;54.088;13.446;2023-10-13T14:39:02;6.03;;;5.30;;
10142;SDS011;5112;54.088;13.446;2023-10-13T14:49:09;7.63;;;5.47;;
10142;SDS011;5112;54.088;13.446;2023-10-13T14:59:12;5.70;;;5.10;;
10142;SDS011;5112;54.088;13.446;2023-10-13T15:09:17;6.70;;;5.07;;
10142;SDS011;5112;54.088;13.446;2023-10-13T15:19:24;6.40;;;5.77;;
10142;SDS011;5112;54.088;13.446;2023-10-13T15:29:29;8.57;;;5.60;;
10142;SDS011;5112;54.088;13.446;2023-10-13T15:39:37;8.63;;;5.33;;
10142;SDS011;5112;54.088;13.446;2023-10-13T15:49:39;8.57;;;5.30;;
10142;SDS011;5112;54.088;13.446;2023-10-13T15:59:43;11.23;;;5.73;;
10142;SDS011;5112;54.088;13.446;2023-10-13T16:09:46;6.77;;;5.30;;
10142;SDS011;5112;54.088;13.446;2023-10-13T16:19:58;10.13;;;5.60;;
10142;SDS011;5112;54.088;13.446;2023-10-13T16:30:00;7.97;;;6.40;;
10142;SDS011;5112;54.088;13.446;2023-10-13T16:40:03;7.10;;;6.00;;
10142;SDS011;5112;54.088;13.446;2023-10-13T16:50:05;9.00;;;6.23;;
10142;SDS011;5112;54.088;13.446;2023-10-13T17:00:10;12.83;;;5.90;;
10142;SDS011;5112;54.088;13.446;2023-10-13T17:10:12;8.63;;;5.72;;
10142;SDS011;5112;54.088;13.446;2023-10-13T17:20:16;10.27;;;6.70;;
10142;SDS011;5112;54.088;13.446;2023-10-13T17:30:18;8.50;;;5.80;;
10142;SDS011;5112;54.088;13.446;2023-10-13T17:40:21;8.47;;;6.10;;
10142;SDS011;5112;54.088;13.446;2023-10-13T17:50:25;8.90;;;5.95;;
10142;SDS011;5112;54.088;13.446;2023-10-13T18:00:28;9.87;;;6.27;;
10142;SDS011;5112;54.088;13.446;2023-10-13T18:10:29;9.27;;;5.90;;
10142;SDS011;5112;54.088;13.446;2023-10-13T18:20:32;7.80;;;6.38;;
10142;SDS011;5112;54.088;13.446;2023-10-13T18:30:34;10.20;;;6.80;;
10142;SDS011;5112;54.088;13.446;2023-10-13T18:40:37;10.95;;;6.80;;
10142;SDS011;5112;54.088;13.446;2023-10-13T18:50:40;10.35;;;6.65;;
10142;SDS011;5112;54.088;13.446;2023-10-13T19:00:45;8.93;;;5.87;;
10142;SDS011;5112;54.088;13.446;2023-10-13T19:10:47;10.13;;;6.07;;
10142;SDS011;5112;54.088;13.446;2023-10-13T19:20:52;9.20;;;5.70;;
10142;SDS011;5112;54.088;13.446;2023-10-13T19:30:54;8.93;;;6.20;;
10142;SDS011;5112;54.088;13.446;2023-10-13T19:40:57;8.97;;;6.40;;
10142;SDS011;5112;54.088;13.446;2023-10-13T19:50:58;10.30;;;6.23;;
10142;SDS011;5112;54.088;13.446;2023-10-13T20:01:06;10.23;;;6.85;;
10142;SDS011;5112;54.088;13.446;2023-10-13T20:11:08;11.27;;;6.10;;
10142;SDS011;5112;54.088;13.446;2023-10-13T20:21:14;11.33;;;5.60;;
10142;SDS011;5112;54.088;13.446;2023-10-13T20:31:16;11.95;;;6.40;;
10142;SDS011;5112;54.088;13.446;2023-10-13T20:41:19;10.80;;;6.03;;
10142;SDS011;5112;54.088;13.446;2023-10-13T20:51:21;9.23;;;5.90;;
10142;SDS011;5112;54.088;13.446;2023-10-13T21:01:25;10.77;;;6.67;;
10142;SDS011;5112;54.088;13.446;2023-10-13T21:11:28;12.10;;;6.83;;
10142;SDS011;5112;54.088;13.446;2023-10-13T21:21:32;9.50;;;6.40;;
10142;SDS011;5112;54.088;13.446;2023-10-13T21:31:33;12.30;;;6.40;;
10142;SDS011;5112;54.088;13.446;2023-10-13T21:41:38;13.73;;;7.40;;
10142;SDS011;5112;54.088;13.446;2023-10-13T21:51:41;11.80;;;6.90;;
10142;SDS011;5112;54.088;13.446;2023-10-13T22:01:44;10.65;;;6.72;;
10142;SDS011;5112;54.088;13.446;2023-10-13T22:11:45;12.40;;;7.00;;
10142;SDS011;5112;54.088;13.446;2023-10-13T22:21:49;11.40;;;7.07;;
10142;SDS011;5112;54.088;13.446;2023-10-13T22:31:52;11.87;;;6.27;;
10142;SDS011;5112;54.088;13.446;2023-10-13T22:41:56;12.37;;;6.87;;
10142;SDS011;5112;54.088;13.446;2023-10-13T22:51:58;11.70;;;7.40;;
10142;SDS011;5112;54.088;13.446;2023-10-13T23:02:01;11.93;;;7.10;;
10142;SDS011;5112;54.088;13.446;2023-10-13T23:12:03;12.07;;;7.25;;
10142;SDS011;5112;54.088;13.446;2023-10-13T23:22:06;8.53;;;5.83;;
10142;SDS011;5112;54.088;13.446;2023-10-13T23:32:10;10.17;;;6.17;;
10142;SDS011;5112;54.088;13.446;2023-10-13T23:42:13;8.30;;;5.78;;
10142;SDS011;5112;54.088;13.446;2023-10-13T23:52:23;8.63;;;5.90;;
